sensor_id;sensor_type;location;lat;lon;timestamp;P1;durP1;ratioP1;P2;durP2;ratioP2
60851;SDS011;48553;50.766;2.900;2023-02-28T00:00:13;6.70;;;3.17;;
60851;SDS011;48553;50.766;2.900;2023-02-28T00:03:14;6.75;;;3.20;;
60851;SDS011;48553;50.766;2.900;2023-02-28T00:06:14;6.88;;;3.22;;
60851;SDS011;48553;50.766;2.900;2023-02-28T00:09:15;7.32;;;3.17;;
60851;SDS011;48553;50.766;2.900;2023-02-28T00:12:15;7.05;;;3.10;;
60851;SDS011;48553;50.766;2.900;2023-02-28T00:15:16;6.50;;;3.13;;
60851;SDS011;48553;50.766;2.900;2023-02-28T00:18:17;6.47;;;3.25;;
60851;SDS011;48553;50.766;2.900;2023-02-28T00:21:18;5.63;;;3.22;;
60851;SDS011;48553;50.766;2.900;2023-02-28T00:24:19;6.95;;;3.38;;
60851;SDS011;48553;50.766;2.900;2023-02-28T00:27:19;6.35;;;3.45;;
60851;SDS011;48553;50.766;2.900;2023-02-28T00:30:20;8.50;;;3.33;;
60851;SDS011;48553;50.766;2.900;2023-02-28T00:33:22;5.45;;;3.35;;
60851;SDS011;48553;50.766;2.900;2023-02-28T00:36:23;7.22;;;3.38;;
60851;SDS011;48553;50.766;2.900;2023-02-28T00:39:24;6.68;;;3.40;;
60851;SDS011;48553;50.766;2.900;2023-02-28T00:42:24;6.20;;;3.25;;
60851;SDS011;48553;50.766;2.900;2023-02-28T00:45:25;6.65;;;3.17;;
60851;SDS011;48553;50.766;2.900;2023-02-28T00:48:27;6.70;;;3.47;;
60851;SDS011;48553;50.766;2.900;2023-02-28T00:51:27;5.78;;;3.50;;
60851;SDS011;48553;50.766;2.900;2023-02-28T00:54:28;5.63;;;3.55;;
60851;SDS011;48553;50.766;2.900;2023-02-28T00:57:29;6.85;;;3.60;;
60851;SDS011;48553;50.766;2.900;2023-02-28T01:00:29;7.25;;;3.67;;
60851;SDS011;48553;50.766;2.900;2023-02-28T01:03:30;6.15;;;3.53;;
60851;SDS011;48553;50.766;2.900;2023-02-28T01:06:31;9.80;;;3.58;;
60851;SDS011;48553;50.766;2.900;2023-02-28T01:09:31;6.53;;;3.55;;
60851;SDS011;48553;50.766;2.900;2023-02-28T01:12:32;5.85;;;3.42;;
60851;SDS011;48553;50.766;2.900;2023-02-28T01:15:32;7.15;;;3.88;;
60851;SDS011;48553;50.766;2.900;2023-02-28T01:18:33;7.20;;;3.83;;
60851;SDS011;48553;50.766;2.900;2023-02-28T01:21:33;7.72;;;4.07;;
60851;SDS011;48553;50.766;2.900;2023-02-28T01:24:34;8.77;;;4.00;;
60851;SDS011;48553;50.766;2.900;2023-02-28T01:27:35;8.15;;;3.70;;
60851;SDS011;48553;50.766;2.900;2023-02-28T01:30:35;7.35;;;3.67;;
60851;SDS011;48553;50.766;2.900;2023-02-28T01:33:36;7.15;;;4.13;;
60851;SDS011;48553;50.766;2.900;2023-02-28T01:36:37;8.57;;;4.00;;
60851;SDS011;48553;50.766;2.900;2023-02-28T01:39:38;8.55;;;4.47;;
60851;SDS011;48553;50.766;2.900;2023-02-28T01:42:38;6.70;;;4.13;;
60851;SDS011;48553;50.766;2.900;2023-02-28T01:45:39;6.10;;;3.70;;
60851;SDS011;48553;50.766;2.900;2023-02-28T01:48:44;7.32;;;4.03;;
60851;SDS011;48553;50.766;2.900;2023-02-28T01:51:52;7.75;;;4.00;;
60851;SDS011;48553;50.766;2.900;2023-02-28T01:54:56;7.40;;;4.27;;
60851;SDS011;48553;50.766;2.900;2023-02-28T01:58:01;7.80;;;4.18;;
60851;SDS011;48553;50.766;2.900;2023-02-28T02:01:05;7.70;;;4.30;;
60851;SDS011;48553;50.766;2.900;2023-02-28T02:04:05;9.90;;;4.45;;
60851;SDS011;48553;50.766;2.900;2023-02-28T02:07:05;6.68;;;4.05;;
60851;SDS011;48553;50.766;2.900;2023-02-28T02:39:13;7.78;;;4.35;;
60851;SDS011;48553;50.766;2.900;2023-02-28T02:45:55;8.25;;;4.63;;
60851;SDS011;48553;50.766;2.900;2023-02-28T02:49:00;8.80;;;4.72;;
60851;SDS011;48553;50.766;2.900;2023-02-28T02:52:05;8.18;;;4.63;;
60851;SDS011;48553;50.766;2.900;2023-02-28T02:55:09;10.05;;;4.70;;
60851;SDS011;48553;50.766;2.900;2023-02-28T02:58:13;8.73;;;4.90;;
60851;SDS011;48553;50.766;2.900;2023-02-28T03:01:18;10.38;;;4.75;;
60851;SDS011;48553;50.766;2.900;2023-02-28T03:04:32;9.82;;;4.95;;
60851;SDS011;48553;50.766;2.900;2023-02-28T03:07:38;10.45;;;5.07;;
60851;SDS011;48553;50.766;2.900;2023-02-28T03:10:40;9.45;;;4.82;;
60851;SDS011;48553;50.766;2.900;2023-02-28T03:13:46;8.68;;;4.68;;
60851;SDS011;48553;50.766;2.900;2023-02-28T03:20:41;8.98;;;4.82;;
60851;SDS011;48553;50.766;2.900;2023-02-28T03:26:55;8.60;;;4.95;;
60851;SDS011;48553;50.766;2.900;2023-02-28T03:30:05;10.32;;;4.78;;
60851;SDS011;48553;50.766;2.900;2023-02-28T03:36:26;9.80;;;4.88;;
60851;SDS011;48553;50.766;2.900;2023-02-28T03:39:31;9.55;;;5.05;;
60851;SDS011;48553;50.766;2.900;2023-02-28T03:42:38;8.60;;;4.82;;
60851;SDS011;48553;50.766;2.900;2023-02-28T03:45:43;9.68;;;4.88;;
60851;SDS011;48553;50.766;2.900;2023-02-28T03:48:47;9.00;;;5.00;;
60851;SDS011;48553;50.766;2.900;2023-02-28T03:51:55;10.55;;;5.10;;
60851;SDS011;48553;50.766;2.900;2023-02-28T03:55:01;9.65;;;5.15;;
60851;SDS011;48553;50.766;2.900;2023-02-28T04:01:44;12.02;;;5.47;;
60851;SDS011;48553;50.766;2.900;2023-02-28T04:04:46;10.85;;;4.63;;
60851;SDS011;48553;50.766;2.900;2023-02-28T04:07:48;11.48;;;5.07;;
60851;SDS011;48553;50.766;2.900;2023-02-28T04:10:54;12.75;;;5.32;;
60851;SDS011;48553;50.766;2.900;2023-02-28T04:13:58;8.93;;;5.07;;
60851;SDS011;48553;50.766;2.900;2023-02-28T04:16:58;9.65;;;5.47;;
60851;SDS011;48553;50.766;2.900;2023-02-28T04:19:58;12.65;;;5.60;;
60851;SDS011;48553;50.766;2.900;2023-02-28T04:22:59;13.65;;;5.85;;
60851;SDS011;48553;50.766;2.900;2023-02-28T04:25:59;10.68;;;5.82;;
60851;SDS011;48553;50.766;2.900;2023-02-28T04:29:00;11.18;;;5.10;;
60851;SDS011;48553;50.766;2.900;2023-02-28T04:32:01;10.98;;;5.50;;
60851;SDS011;48553;50.766;2.900;2023-02-28T04:35:03;11.13;;;5.10;;
60851;SDS011;48553;50.766;2.900;2023-02-28T04:38:04;9.68;;;5.05;;
60851;SDS011;48553;50.766;2.900;2023-02-28T04:41:04;10.10;;;5.32;;
60851;SDS011;48553;50.766;2.900;2023-02-28T04:44:05;12.38;;;5.63;;
60851;SDS011;48553;50.766;2.900;2023-02-28T04:47:05;11.48;;;5.63;;
60851;SDS011;48553;50.766;2.900;2023-02-28T04:50:06;10.88;;;5.65;;
60851;SDS011;48553;50.766;2.900;2023-02-28T04:53:07;11.80;;;5.75;;
60851;SDS011;48553;50.766;2.900;2023-02-28T04:56:08;11.55;;;5.90;;
60851;SDS011;48553;50.766;2.900;2023-02-28T04:59:12;12.13;;;6.20;;
60851;SDS011;48553;50.766;2.900;2023-02-28T05:02:12;12.70;;;5.22;;
60851;SDS011;48553;50.766;2.900;2023-02-28T05:05:13;11.07;;;5.57;;
60851;SDS011;48553;50.766;2.900;2023-02-28T05:08:17;12.68;;;5.95;;
60851;SDS011;48553;50.766;2.900;2023-02-28T05:11:22;11.35;;;6.03;;
60851;SDS011;48553;50.766;2.900;2023-02-28T05:14:29;13.02;;;6.50;;
60851;SDS011;48553;50.766;2.900;2023-02-28T05:17:29;11.27;;;6.35;;
60851;SDS011;48553;50.766;2.900;2023-02-28T05:20:30;12.00;;;6.13;;
60851;SDS011;48553;50.766;2.900;2023-02-28T05:23:30;12.43;;;6.05;;
60851;SDS011;48553;50.766;2.900;2023-02-28T05:26:34;14.13;;;6.40;;
60851;SDS011;48553;50.766;2.900;2023-02-28T05:29:35;11.57;;;6.32;;
60851;SDS011;48553;50.766;2.900;2023-02-28T05:32:41;12.73;;;6.07;;
60851;SDS011;48553;50.766;2.900;2023-02-28T05:35:44;14.40;;;6.55;;
60851;SDS011;48553;50.766;2.900;2023-02-28T05:38:46;12.93;;;6.20;;
60851;SDS011;48553;50.766;2.900;2023-02-28T05:41:47;10.60;;;6.35;;
60851;SDS011;48553;50.766;2.900;2023-02-28T05:44:48;10.15;;;5.57;;
60851;SDS011;48553;50.766;2.900;2023-02-28T05:47:48;11.23;;;6.32;;
60851;SDS011;48553;50.766;2.900;2023-02-28T05:50:48;14.15;;;6.22;;
60851;SDS011;48553;50.766;2.900;2023-02-28T05:53:49;15.15;;;6.32;;
60851;SDS011;48553;50.766;2.900;2023-02-28T05:56:49;13.32;;;6.65;;
60851;SDS011;48553;50.766;2.900;2023-02-28T05:59:50;10.63;;;6.22;;
60851;SDS011;48553;50.766;2.900;2023-02-28T06:02:50;13.07;;;5.97;;
60851;SDS011;48553;50.766;2.900;2023-02-28T06:05:53;12.77;;;6.60;;
60851;SDS011;48553;50.766;2.900;2023-02-28T06:08:53;11.05;;;6.00;;
60851;SDS011;48553;50.766;2.900;2023-02-28T06:11:54;11.95;;;6.22;;
60851;SDS011;48553;50.766;2.900;2023-02-28T06:14:57;13.93;;;6.47;;
60851;SDS011;48553;50.766;2.900;2023-02-28T06:17:57;10.45;;;5.97;;
60851;SDS011;48553;50.766;2.900;2023-02-28T06:20:58;11.98;;;5.93;;
60851;SDS011;48553;50.766;2.900;2023-02-28T06:23:59;12.45;;;6.20;;
60851;SDS011;48553;50.766;2.900;2023-02-28T06:26:59;11.20;;;6.13;;
60851;SDS011;48553;50.766;2.900;2023-02-28T06:30:05;11.82;;;6.50;;
60851;SDS011;48553;50.766;2.900;2023-02-28T06:33:05;12.10;;;6.15;;
60851;SDS011;48553;50.766;2.900;2023-02-28T06:36:06;12.20;;;6.45;;
60851;SDS011;48553;50.766;2.900;2023-02-28T06:39:08;14.43;;;6.40;;
60851;SDS011;48553;50.766;2.900;2023-02-28T06:42:09;11.88;;;5.63;;
60851;SDS011;48553;50.766;2.900;2023-02-28T06:45:10;12.70;;;6.25;;
60851;SDS011;48553;50.766;2.900;2023-02-28T06:48:11;11.38;;;6.57;;
60851;SDS011;48553;50.766;2.900;2023-02-28T06:51:13;15.02;;;7.00;;
60851;SDS011;48553;50.766;2.900;2023-02-28T06:54:15;11.70;;;6.35;;
60851;SDS011;48553;50.766;2.900;2023-02-28T06:57:16;13.73;;;6.88;;
60851;SDS011;48553;50.766;2.900;2023-02-28T07:00:16;14.07;;;6.55;;
60851;SDS011;48553;50.766;2.900;2023-02-28T07:03:17;9.93;;;6.30;;
60851;SDS011;48553;50.766;2.900;2023-02-28T07:06:18;14.45;;;6.65;;
60851;SDS011;48553;50.766;2.900;2023-02-28T07:09:23;14.73;;;6.68;;
60851;SDS011;48553;50.766;2.900;2023-02-28T07:12:23;12.75;;;6.80;;
60851;SDS011;48553;50.766;2.900;2023-02-28T07:15:24;13.02;;;6.88;;
60851;SDS011;48553;50.766;2.900;2023-02-28T07:18:24;11.27;;;6.70;;
60851;SDS011;48553;50.766;2.900;2023-02-28T07:21:25;11.10;;;6.28;;
60851;SDS011;48553;50.766;2.900;2023-02-28T07:24:25;14.38;;;6.75;;
60851;SDS011;48553;50.766;2.900;2023-02-28T07:27:28;14.32;;;7.03;;
60851;SDS011;48553;50.766;2.900;2023-02-28T07:30:28;12.02;;;6.63;;
60851;SDS011;48553;50.766;2.900;2023-02-28T07:33:29;11.80;;;7.00;;
60851;SDS011;48553;50.766;2.900;2023-02-28T07:36:29;12.50;;;7.25;;
60851;SDS011;48553;50.766;2.900;2023-02-28T07:39:29;12.55;;;6.32;;
60851;SDS011;48553;50.766;2.900;2023-02-28T07:42:30;13.05;;;6.88;;
60851;SDS011;48553;50.766;2.900;2023-02-28T07:45:30;12.55;;;6.60;;
60851;SDS011;48553;50.766;2.900;2023-02-28T07:48:34;14.07;;;6.03;;
60851;SDS011;48553;50.766;2.900;2023-02-28T07:51:34;12.32;;;6.32;;
60851;SDS011;48553;50.766;2.900;2023-02-28T07:54:35;10.55;;;5.65;;
60851;SDS011;48553;50.766;2.900;2023-02-28T07:57:35;12.00;;;5.90;;
60851;SDS011;48553;50.766;2.900;2023-02-28T08:00:36;10.30;;;5.32;;
60851;SDS011;48553;50.766;2.900;2023-02-28T08:03:37;11.02;;;5.82;;
60851;SDS011;48553;50.766;2.900;2023-02-28T08:06:38;10.07;;;5.22;;
60851;SDS011;48553;50.766;2.900;2023-02-28T08:09:39;10.43;;;5.57;;
60851;SDS011;48553;50.766;2.900;2023-02-28T08:12:40;9.35;;;4.97;;
60851;SDS011;48553;50.766;2.900;2023-02-28T08:15:41;9.00;;;4.95;;
60851;SDS011;48553;50.766;2.900;2023-02-28T08:18:42;10.10;;;5.03;;
60851;SDS011;48553;50.766;2.900;2023-02-28T08:21:43;9.30;;;5.32;;
60851;SDS011;48553;50.766;2.900;2023-02-28T08:24:44;8.68;;;5.05;;
60851;SDS011;48553;50.766;2.900;2023-02-28T08:27:44;10.57;;;5.32;;
60851;SDS011;48553;50.766;2.900;2023-02-28T08:30:45;10.02;;;5.28;;
60851;SDS011;48553;50.766;2.900;2023-02-28T08:33:45;9.23;;;5.40;;
60851;SDS011;48553;50.766;2.900;2023-02-28T08:36:48;10.55;;;5.50;;
60851;SDS011;48553;50.766;2.900;2023-02-28T08:39:48;9.48;;;5.18;;
60851;SDS011;48553;50.766;2.900;2023-02-28T08:42:49;10.48;;;5.28;;
60851;SDS011;48553;50.766;2.900;2023-02-28T08:45:53;10.63;;;5.63;;
60851;SDS011;48553;50.766;2.900;2023-02-28T08:48:56;9.80;;;5.15;;
60851;SDS011;48553;50.766;2.900;2023-02-28T08:52:01;10.20;;;5.25;;
60851;SDS011;48553;50.766;2.900;2023-02-28T08:55:01;9.93;;;5.25;;
60851;SDS011;48553;50.766;2.900;2023-02-28T08:58:02;9.35;;;5.10;;
60851;SDS011;48553;50.766;2.900;2023-02-28T09:01:09;10.32;;;4.93;;
60851;SDS011;48553;50.766;2.900;2023-02-28T09:04:12;10.15;;;4.75;;
60851;SDS011;48553;50.766;2.900;2023-02-28T09:07:12;10.75;;;4.88;;
60851;SDS011;48553;50.766;2.900;2023-02-28T09:10:12;11.52;;;5.30;;
60851;SDS011;48553;50.766;2.900;2023-02-28T09:13:13;8.95;;;4.70;;
60851;SDS011;48553;50.766;2.900;2023-02-28T09:16:14;6.53;;;3.92;;
60851;SDS011;48553;50.766;2.900;2023-02-28T09:19:16;7.40;;;3.63;;
60851;SDS011;48553;50.766;2.900;2023-02-28T09:22:16;7.63;;;4.10;;
60851;SDS011;48553;50.766;2.900;2023-02-28T09:25:17;6.90;;;3.90;;
60851;SDS011;48553;50.766;2.900;2023-02-28T09:28:17;6.43;;;3.38;;
60851;SDS011;48553;50.766;2.900;2023-02-28T09:31:19;7.40;;;3.60;;
60851;SDS011;48553;50.766;2.900;2023-02-28T09:34:22;7.10;;;3.70;;
60851;SDS011;48553;50.766;2.900;2023-02-28T09:37:22;8.25;;;3.40;;
60851;SDS011;48553;50.766;2.900;2023-02-28T09:40:23;5.30;;;3.25;;
60851;SDS011;48553;50.766;2.900;2023-02-28T09:43:26;6.10;;;3.15;;
60851;SDS011;48553;50.766;2.900;2023-02-28T09:46:38;7.10;;;3.17;;
60851;SDS011;48553;50.766;2.900;2023-02-28T09:49:45;6.38;;;3.10;;
60851;SDS011;48553;50.766;2.900;2023-02-28T09:52:47;5.93;;;2.85;;
60851;SDS011;48553;50.766;2.900;2023-02-28T09:55:51;6.43;;;3.00;;
60851;SDS011;48553;50.766;2.900;2023-02-28T10:05:41;6.25;;;3.17;;
60851;SDS011;48553;50.766;2.900;2023-02-28T10:08:58;6.78;;;2.97;;
60851;SDS011;48553;50.766;2.900;2023-02-28T10:12:04;8.13;;;3.22;;
60851;SDS011;48553;50.766;2.900;2023-02-28T10:15:07;6.53;;;3.42;;
60851;SDS011;48553;50.766;2.900;2023-02-28T10:18:13;5.43;;;3.13;;
60851;SDS011;48553;50.766;2.900;2023-02-28T10:24:42;4.88;;;3.00;;
60851;SDS011;48553;50.766;2.900;2023-02-28T10:27:44;5.22;;;2.85;;
60851;SDS011;48553;50.766;2.900;2023-02-28T10:30:47;5.65;;;2.72;;
60851;SDS011;48553;50.766;2.900;2023-02-28T10:33:51;5.20;;;2.65;;
60851;SDS011;48553;50.766;2.900;2023-02-28T10:36:52;6.97;;;2.75;;
60851;SDS011;48553;50.766;2.900;2023-02-28T10:39:53;5.60;;;2.90;;
60851;SDS011;48553;50.766;2.900;2023-02-28T10:46:16;5.00;;;2.45;;
60851;SDS011;48553;50.766;2.900;2023-02-28T10:49:26;5.78;;;3.13;;
60851;SDS011;48553;50.766;2.900;2023-02-28T10:52:40;6.15;;;3.00;;
60851;SDS011;48553;50.766;2.900;2023-02-28T10:55:41;5.65;;;2.80;;
60851;SDS011;48553;50.766;2.900;2023-02-28T11:04:58;5.40;;;2.70;;
60851;SDS011;48553;50.766;2.900;2023-02-28T11:08:19;5.93;;;2.60;;
60851;SDS011;48553;50.766;2.900;2023-02-28T11:11:19;5.90;;;3.00;;
60851;SDS011;48553;50.766;2.900;2023-02-28T11:14:22;5.10;;;2.63;;
60851;SDS011;48553;50.766;2.900;2023-02-28T11:17:26;6.50;;;3.13;;
60851;SDS011;48553;50.766;2.900;2023-02-28T11:20:30;5.38;;;2.67;;
60851;SDS011;48553;50.766;2.900;2023-02-28T11:23:33;4.28;;;2.47;;
60851;SDS011;48553;50.766;2.900;2023-02-28T11:26:46;5.43;;;2.40;;
60851;SDS011;48553;50.766;2.900;2023-02-28T11:29:50;6.13;;;2.97;;
60851;SDS011;48553;50.766;2.900;2023-02-28T11:32:51;5.55;;;2.90;;
60851;SDS011;48553;50.766;2.900;2023-02-28T11:35:51;4.53;;;2.35;;
60851;SDS011;48553;50.766;2.900;2023-02-28T11:38:54;7.15;;;2.80;;
60851;SDS011;48553;50.766;2.900;2023-02-28T11:42:13;7.53;;;2.92;;
60851;SDS011;48553;50.766;2.900;2023-02-28T11:45:24;5.05;;;2.40;;
60851;SDS011;48553;50.766;2.900;2023-02-28T11:48:43;6.32;;;2.70;;
60851;SDS011;48553;50.766;2.900;2023-02-28T11:51:59;4.03;;;2.40;;
60851;SDS011;48553;50.766;2.900;2023-02-28T12:01:52;4.15;;;2.58;;
60851;SDS011;48553;50.766;2.900;2023-02-28T12:11:53;4.93;;;2.58;;
60851;SDS011;48553;50.766;2.900;2023-02-28T12:15:00;7.50;;;2.80;;
60851;SDS011;48553;50.766;2.900;2023-02-28T12:28:17;5.00;;;3.00;;
60851;SDS011;48553;50.766;2.900;2023-02-28T12:31:26;4.93;;;2.67;;
60851;SDS011;48553;50.766;2.900;2023-02-28T12:34:33;5.95;;;2.80;;
60851;SDS011;48553;50.766;2.900;2023-02-28T12:37:55;4.85;;;2.55;;
60851;SDS011;48553;50.766;2.900;2023-02-28T12:41:02;4.07;;;2.63;;
60851;SDS011;48553;50.766;2.900;2023-02-28T12:44:08;4.82;;;2.70;;
60851;SDS011;48553;50.766;2.900;2023-02-28T12:47:17;5.30;;;2.80;;
60851;SDS011;48553;50.766;2.900;2023-02-28T12:50:18;5.40;;;3.05;;
60851;SDS011;48553;50.766;2.900;2023-02-28T12:53:23;6.45;;;3.00;;
60851;SDS011;48553;50.766;2.900;2023-02-28T13:00:08;5.40;;;2.60;;
60851;SDS011;48553;50.766;2.900;2023-02-28T13:03:24;4.63;;;2.80;;
60851;SDS011;48553;50.766;2.900;2023-02-28T13:06:41;4.25;;;2.80;;
60851;SDS011;48553;50.766;2.900;2023-02-28T13:10:10;4.72;;;3.00;;
60851;SDS011;48553;50.766;2.900;2023-02-28T13:13:17;5.25;;;2.95;;
60851;SDS011;48553;50.766;2.900;2023-02-28T13:16:21;4.50;;;2.70;;
60851;SDS011;48553;50.766;2.900;2023-02-28T13:19:22;4.55;;;2.55;;
60851;SDS011;48553;50.766;2.900;2023-02-28T13:22:42;4.63;;;3.13;;
60851;SDS011;48553;50.766;2.900;2023-02-28T13:38:13;6.05;;;3.47;;
60851;SDS011;48553;50.766;2.900;2023-02-28T13:44:29;5.72;;;3.58;;
60851;SDS011;48553;50.766;2.900;2023-02-28T13:50:36;4.75;;;3.08;;
60851;SDS011;48553;50.766;2.900;2023-02-28T13:53:48;4.85;;;3.08;;
60851;SDS011;48553;50.766;2.900;2023-02-28T14:00:28;4.78;;;3.28;;
60851;SDS011;48553;50.766;2.900;2023-02-28T14:03:50;4.40;;;2.78;;
60851;SDS011;48553;50.766;2.900;2023-02-28T14:07:16;4.47;;;3.00;;
60851;SDS011;48553;50.766;2.900;2023-02-28T14:10:22;4.05;;;2.80;;
60851;SDS011;48553;50.766;2.900;2023-02-28T14:13:43;5.60;;;2.95;;
60851;SDS011;48553;50.766;2.900;2023-02-28T14:16:47;5.03;;;2.60;;
60851;SDS011;48553;50.766;2.900;2023-02-28T14:19:50;6.00;;;3.22;;
60851;SDS011;48553;50.766;2.900;2023-02-28T14:23:26;4.85;;;3.05;;
60851;SDS011;48553;50.766;2.900;2023-02-28T14:33:25;4.13;;;2.70;;
60851;SDS011;48553;50.766;2.900;2023-02-28T14:36:36;5.30;;;3.00;;
60851;SDS011;48553;50.766;2.900;2023-02-28T14:39:40;5.53;;;2.80;;
60851;SDS011;48553;50.766;2.900;2023-02-28T14:42:45;4.15;;;2.90;;
60851;SDS011;48553;50.766;2.900;2023-02-28T14:45:55;6.47;;;3.00;;
60851;SDS011;48553;50.766;2.900;2023-02-28T14:49:00;4.45;;;3.00;;
60851;SDS011;48553;50.766;2.900;2023-02-28T14:52:12;4.95;;;2.70;;
60851;SDS011;48553;50.766;2.900;2023-02-28T14:55:17;3.65;;;2.60;;
60851;SDS011;48553;50.766;2.900;2023-02-28T14:58:24;3.95;;;2.50;;
60851;SDS011;48553;50.766;2.900;2023-02-28T15:01:27;4.97;;;2.50;;
60851;SDS011;48553;50.766;2.900;2023-02-28T15:04:28;4.47;;;2.53;;
60851;SDS011;48553;50.766;2.900;2023-02-28T15:07:31;3.90;;;2.40;;
60851;SDS011;48553;50.766;2.900;2023-02-28T15:10:31;3.83;;;2.28;;
60851;SDS011;48553;50.766;2.900;2023-02-28T15:13:37;4.97;;;2.40;;
60851;SDS011;48553;50.766;2.900;2023-02-28T15:16:41;4.43;;;2.17;;
60851;SDS011;48553;50.766;2.900;2023-02-28T15:19:50;4.82;;;2.30;;
60851;SDS011;48553;50.766;2.900;2023-02-28T15:22:52;3.55;;;1.90;;
60851;SDS011;48553;50.766;2.900;2023-02-28T15:25:57;3.10;;;1.85;;
60851;SDS011;48553;50.766;2.900;2023-02-28T15:29:03;4.38;;;2.30;;
60851;SDS011;48553;50.766;2.900;2023-02-28T15:32:06;2.78;;;1.95;;
60851;SDS011;48553;50.766;2.900;2023-02-28T15:38:26;3.30;;;2.10;;
60851;SDS011;48553;50.766;2.900;2023-02-28T15:41:30;3.40;;;1.88;;
60851;SDS011;48553;50.766;2.900;2023-02-28T15:44:40;2.67;;;1.80;;
60851;SDS011;48553;50.766;2.900;2023-02-28T15:47:44;3.53;;;1.83;;
60851;SDS011;48553;50.766;2.900;2023-02-28T15:50:53;3.80;;;2.10;;
60851;SDS011;48553;50.766;2.900;2023-02-28T15:54:02;3.72;;;2.03;;
60851;SDS011;48553;50.766;2.900;2023-02-28T15:57:07;4.72;;;2.33;;
60851;SDS011;48553;50.766;2.900;2023-02-28T16:00:16;4.18;;;2.50;;
60851;SDS011;48553;50.766;2.900;2023-02-28T16:03:23;3.33;;;2.20;;
60851;SDS011;48553;50.766;2.900;2023-02-28T16:10:12;3.92;;;2.40;;
60851;SDS011;48553;50.766;2.900;2023-02-28T16:13:16;4.10;;;2.40;;
60851;SDS011;48553;50.766;2.900;2023-02-28T16:16:20;4.35;;;2.75;;
60851;SDS011;48553;50.766;2.900;2023-02-28T16:19:22;3.28;;;2.40;;
60851;SDS011;48553;50.766;2.900;2023-02-28T16:22:23;6.50;;;2.83;;
60851;SDS011;48553;50.766;2.900;2023-02-28T16:25:26;5.13;;;2.75;;
60851;SDS011;48553;50.766;2.900;2023-02-28T16:28:35;4.72;;;2.80;;
60851;SDS011;48553;50.766;2.900;2023-02-28T16:31:38;4.50;;;2.40;;
60851;SDS011;48553;50.766;2.900;2023-02-28T16:34:38;4.38;;;2.78;;
60851;SDS011;48553;50.766;2.900;2023-02-28T16:37:39;4.88;;;2.75;;
60851;SDS011;48553;50.766;2.900;2023-02-28T16:40:41;6.20;;;2.70;;
60851;SDS011;48553;50.766;2.900;2023-02-28T16:43:41;5.85;;;2.70;;
60851;SDS011;48553;50.766;2.900;2023-02-28T16:46:43;4.13;;;2.67;;
60851;SDS011;48553;50.766;2.900;2023-02-28T16:49:44;5.00;;;2.70;;
60851;SDS011;48553;50.766;2.900;2023-02-28T16:52:44;3.88;;;2.60;;
60851;SDS011;48553;50.766;2.900;2023-02-28T16:55:45;4.72;;;2.72;;
60851;SDS011;48553;50.766;2.900;2023-02-28T16:58:47;5.05;;;3.00;;
60851;SDS011;48553;50.766;2.900;2023-02-28T17:01:49;3.92;;;2.90;;
60851;SDS011;48553;50.766;2.900;2023-02-28T17:04:50;6.32;;;3.05;;
60851;SDS011;48553;50.766;2.900;2023-02-28T17:07:50;10.20;;;3.22;;
60851;SDS011;48553;50.766;2.900;2023-02-28T17:10:51;5.20;;;3.28;;
60851;SDS011;48553;50.766;2.900;2023-02-28T17:13:52;5.80;;;3.20;;
60851;SDS011;48553;50.766;2.900;2023-02-28T17:16:53;5.60;;;2.97;;
60851;SDS011;48553;50.766;2.900;2023-02-28T17:19:54;5.50;;;3.38;;
60851;SDS011;48553;50.766;2.900;2023-02-28T17:22:54;6.20;;;3.25;;
60851;SDS011;48553;50.766;2.900;2023-02-28T17:25:56;5.13;;;2.97;;
60851;SDS011;48553;50.766;2.900;2023-02-28T17:28:56;5.30;;;2.90;;
60851;SDS011;48553;50.766;2.900;2023-02-28T17:31:57;7.75;;;3.47;;
60851;SDS011;48553;50.766;2.900;2023-02-28T17:34:57;5.97;;;3.35;;
60851;SDS011;48553;50.766;2.900;2023-02-28T17:37:58;6.68;;;3.25;;
60851;SDS011;48553;50.766;2.900;2023-02-28T17:40:58;6.45;;;3.63;;
60851;SDS011;48553;50.766;2.900;2023-02-28T17:43:59;7.35;;;3.15;;
60851;SDS011;48553;50.766;2.900;2023-02-28T17:46:59;4.82;;;3.33;;
60851;SDS011;48553;50.766;2.900;2023-02-28T17:50:00;5.90;;;3.67;;
60851;SDS011;48553;50.766;2.900;2023-02-28T17:53:00;5.80;;;3.40;;
60851;SDS011;48553;50.766;2.900;2023-02-28T17:56:01;5.57;;;3.42;;
60851;SDS011;48553;50.766;2.900;2023-02-28T17:59:01;5.28;;;3.33;;
60851;SDS011;48553;50.766;2.900;2023-02-28T18:02:03;5.38;;;3.10;;
60851;SDS011;48553;50.766;2.900;2023-02-28T18:05:03;6.68;;;3.60;;
60851;SDS011;48553;50.766;2.900;2023-02-28T18:08:04;5.78;;;3.72;;
60851;SDS011;48553;50.766;2.900;2023-02-28T18:11:05;6.30;;;3.50;;
60851;SDS011;48553;50.766;2.900;2023-02-28T18:14:05;7.07;;;3.67;;
60851;SDS011;48553;50.766;2.900;2023-02-28T18:17:05;5.95;;;3.83;;
60851;SDS011;48553;50.766;2.900;2023-02-28T18:20:06;6.07;;;3.60;;
60851;SDS011;48553;50.766;2.900;2023-02-28T18:23:09;6.78;;;3.78;;
60851;SDS011;48553;50.766;2.900;2023-02-28T18:26:09;6.40;;;3.58;;
60851;SDS011;48553;50.766;2.900;2023-02-28T18:29:23;6.43;;;3.88;;
60851;SDS011;48553;50.766;2.900;2023-02-28T18:32:25;7.72;;;4.15;;
60851;SDS011;48553;50.766;2.900;2023-02-28T18:35:26;9.32;;;4.35;;
60851;SDS011;48553;50.766;2.900;2023-02-28T18:38:38;8.20;;;4.60;;
60851;SDS011;48553;50.766;2.900;2023-02-28T18:41:39;9.15;;;5.18;;
60851;SDS011;48553;50.766;2.900;2023-02-28T18:44:39;8.82;;;4.97;;
60851;SDS011;48553;50.766;2.900;2023-02-28T18:47:40;12.50;;;5.78;;
60851;SDS011;48553;50.766;2.900;2023-02-28T18:50:40;10.70;;;4.93;;
60851;SDS011;48553;50.766;2.900;2023-02-28T18:53:41;8.75;;;4.90;;
60851;SDS011;48553;50.766;2.900;2023-02-28T18:56:42;9.55;;;4.95;;
60851;SDS011;48553;50.766;2.900;2023-02-28T18:59:42;7.72;;;4.82;;
60851;SDS011;48553;50.766;2.900;2023-02-28T19:02:42;7.88;;;4.78;;
60851;SDS011;48553;50.766;2.900;2023-02-28T19:05:43;7.70;;;4.50;;
60851;SDS011;48553;50.766;2.900;2023-02-28T19:08:43;9.25;;;4.50;;
60851;SDS011;48553;50.766;2.900;2023-02-28T19:11:44;10.43;;;4.43;;
60851;SDS011;48553;50.766;2.900;2023-02-28T19:14:44;8.13;;;4.78;;
60851;SDS011;48553;50.766;2.900;2023-02-28T19:17:45;9.82;;;4.85;;
60851;SDS011;48553;50.766;2.900;2023-02-28T19:20:46;7.57;;;4.78;;
60851;SDS011;48553;50.766;2.900;2023-02-28T19:23:46;7.47;;;4.50;;
60851;SDS011;48553;50.766;2.900;2023-02-28T19:26:47;8.85;;;4.80;;
60851;SDS011;48553;50.766;2.900;2023-02-28T19:29:48;8.13;;;4.90;;
60851;SDS011;48553;50.766;2.900;2023-02-28T19:32:50;9.02;;;5.35;;
60851;SDS011;48553;50.766;2.900;2023-02-28T19:35:50;10.35;;;5.22;;
60851;SDS011;48553;50.766;2.900;2023-02-28T19:38:51;9.43;;;4.95;;
60851;SDS011;48553;50.766;2.900;2023-02-28T19:41:51;9.43;;;5.35;;
60851;SDS011;48553;50.766;2.900;2023-02-28T19:44:53;8.18;;;4.90;;
60851;SDS011;48553;50.766;2.900;2023-02-28T19:47:54;9.95;;;5.32;;
60851;SDS011;48553;50.766;2.900;2023-02-28T19:50:55;8.75;;;5.32;;
60851;SDS011;48553;50.766;2.900;2023-02-28T19:54:15;8.98;;;5.15;;
60851;SDS011;48553;50.766;2.900;2023-02-28T19:57:15;9.23;;;5.60;;
60851;SDS011;48553;50.766;2.900;2023-02-28T20:00:16;8.68;;;5.10;;
60851;SDS011;48553;50.766;2.900;2023-02-28T20:03:18;9.57;;;5.22;;
60851;SDS011;48553;50.766;2.900;2023-02-28T20:06:18;10.60;;;5.65;;
60851;SDS011;48553;50.766;2.900;2023-02-28T20:09:19;10.73;;;5.63;;
60851;SDS011;48553;50.766;2.900;2023-02-28T20:12:20;9.77;;;5.45;;
60851;SDS011;48553;50.766;2.900;2023-02-28T20:15:22;9.98;;;5.53;;
60851;SDS011;48553;50.766;2.900;2023-02-28T20:18:22;10.77;;;5.72;;
60851;SDS011;48553;50.766;2.900;2023-02-28T20:21:23;9.30;;;5.55;;
60851;SDS011;48553;50.766;2.900;2023-02-28T20:24:23;13.05;;;6.05;;
60851;SDS011;48553;50.766;2.900;2023-02-28T20:27:24;12.15;;;6.18;;